Aérodrome :
LOGIN :

S'inscrire | Disclaimer

   EN    FR    IT 

 










Légende :    VFR   VFR Marginal   IFR   IFR Intensif   IFR Très Intensif
Visi : 
Plafond : 
>= 8 km
>= 3000ft
5 à 8 km
1000 à 3000 ft
1500m à 5 km
500 à 1000 ft
800 à 1500m
200 à 500 ft
< 800m
< 200 ft
Symboles :   Orages  Brouillard  Fortes neiges  Fortes précipitations  Vent > 20 kt
SIGMETs :   Divers  Orages  Givrage  Turbulence  Onde Orograph.  Cendres Volcan.







- Altitude de l'aérodrome : 270 ft
- Code IATA : OXF
- Voir les cartes d'approche


EGTK - Oxford (Kidlington)

DERNIER METAR :
  • 181820Z 35003KT 8000 NSC 00/M00 Q1032

METARs EXPIRÉS :
  • 181750Z VRB02KT 6000 NSC 00/00 Q1032
  • 181720Z 03003KT 1500 R19/0600 VCFG NSC M00/M01 Q1031
  • 181650Z 35002KT CAVOK 03/02 Q1031
  • 181550Z 34004KT CAVOK 05/03 Q1031

TAF TAF EGTK
Valide du 18 à 18h jusqu'au 18 à 23h UTC


181656Z 1818/1823 35006KT 9999 FEW045
BECMG 1818/1820 3000 BR
PROB40 1818/1823 0300 FG VV///
Pas de NOTAMs connus pour ce terrain.



MET'MAP, la Météo Aéronautique d'un coup d'oeil ! - Copyright ORBIFLY Décembre 2007 - Disclaimer

ORBIFLY MET'MAP TEAM :

Programmation & Développement : Alexandra Zaïnal
Conception & Développement : Baudouin d'Aumeries
Co-Programmation & Développement : Marc-Olivier Méhu
Soutien technique & logistique : Manuel Goepfert

Contact : metmap@orbifly.com




SOURCES & CREDITS :

   NOAA